sensor_id;sensor_type;location;lat;lon;timestamp;temperature;humidity
16134;DHT22;8172;45.018;5.972;2022-09-06T00:03:27;18.00;64.30
16134;DHT22;8172;45.018;5.972;2022-09-06T00:08:35;18.00;64.40
16134;DHT22;8172;45.018;5.972;2022-09-06T00:13:42;18.00;64.40
16134;DHT22;8172;45.018;5.972;2022-09-06T00:18:51;18.00;64.30
16134;DHT22;8172;45.018;5.972;2022-09-06T00:24:00;18.00;64.40
16134;DHT22;8172;45.018;5.972;2022-09-06T00:29:08;17.90;64.30
16134;DHT22;8172;45.018;5.972;2022-09-06T00:34:15;17.90;64.10
16134;DHT22;8172;45.018;5.972;2022-09-06T00:39:22;17.90;64.20
16134;DHT22;8172;45.018;5.972;2022-09-06T00:44:30;17.90;64.20
16134;DHT22;8172;45.018;5.972;2022-09-06T00:49:40;17.90;64.10
16134;DHT22;8172;45.018;5.972;2022-09-06T00:54:48;17.90;64.30
16134;DHT22;8172;45.018;5.972;2022-09-06T00:59:56;17.90;64.20
16134;DHT22;8172;45.018;5.972;2022-09-06T01:05:04;17.90;64.20
16134;DHT22;8172;45.018;5.972;2022-09-06T01:30:49;17.80;64.30
16134;DHT22;8172;45.018;5.972;2022-09-06T01:35:58;17.80;64.30
16134;DHT22;8172;45.018;5.972;2022-09-06T01:41:05;17.70;64.20
16134;DHT22;8172;45.018;5.972;2022-09-06T02:06:56;17.60;64.40
16134;DHT22;8172;45.018;5.972;2022-09-06T02:12:02;17.60;64.40
16134;DHT22;8172;45.018;5.972;2022-09-06T02:17:12;17.60;64.50
16134;DHT22;8172;45.018;5.972;2022-09-06T02:22:22;17.60;64.60
16134;DHT22;8172;45.018;5.972;2022-09-06T02:27:29;17.60;64.60
16134;DHT22;8172;45.018;5.972;2022-09-06T02:32:41;17.60;64.60
16134;DHT22;8172;45.018;5.972;2022-09-06T02:37:46;17.50;64.50
16134;DHT22;8172;45.018;5.972;2022-09-06T02:42:53;17.50;64.50
16134;DHT22;8172;45.018;5.972;2022-09-06T02:48:00;17.50;64.50
16134;DHT22;8172;45.018;5.972;2022-09-06T02:53:10;17.50;64.60
16134;DHT22;8172;45.018;5.972;2022-09-06T02:58:17;17.50;64.60
16134;DHT22;8172;45.018;5.972;2022-09-06T03:03:24;17.50;64.70
16134;DHT22;8172;45.018;5.972;2022-09-06T03:08:32;17.50;64.70
16134;DHT22;8172;45.018;5.972;2022-09-06T03:13:40;17.40;64.70
16134;DHT22;8172;45.018;5.972;2022-09-06T03:18:47;17.40;64.70
16134;DHT22;8172;45.018;5.972;2022-09-06T03:23:54;17.40;64.70
16134;DHT22;8172;45.018;5.972;2022-09-06T03:29:01;17.40;64.70
16134;DHT22;8172;45.018;5.972;2022-09-06T03:34:08;17.30;64.70
16134;DHT22;8172;45.018;5.972;2022-09-06T03:39:16;17.30;64.80
16134;DHT22;8172;45.018;5.972;2022-09-06T03:44:23;17.30;64.90
16134;DHT22;8172;45.018;5.972;2022-09-06T03:49:30;17.30;64.90
16134;DHT22;8172;45.018;5.972;2022-09-06T03:54:37;17.40;65.00
16134;DHT22;8172;45.018;5.972;2022-09-06T03:59:45;17.30;65.00
16134;DHT22;8172;45.018;5.972;2022-09-06T04:04:52;17.30;65.00
16134;DHT22;8172;45.018;5.972;2022-09-06T04:10:00;17.30;65.00
16134;DHT22;8172;45.018;5.972;2022-09-06T04:15:07;17.30;65.20
16134;DHT22;8172;45.018;5.972;2022-09-06T04:20:15;17.30;65.30
16134;DHT22;8172;45.018;5.972;2022-09-06T04:25:22;17.30;65.40
16134;DHT22;8172;45.018;5.972;2022-09-06T04:30:29;17.40;65.40
16134;DHT22;8172;45.018;5.972;2022-09-06T04:35:36;17.40;65.40
16134;DHT22;8172;45.018;5.972;2022-09-06T04:40:44;17.40;65.50
16134;DHT22;8172;45.018;5.972;2022-09-06T04:45:51;17.40;65.60
16134;DHT22;8172;45.018;5.972;2022-09-06T04:50:58;17.30;65.90
16134;DHT22;8172;45.018;5.972;2022-09-06T04:56:05;17.30;65.80
16134;DHT22;8172;45.018;5.972;2022-09-06T05:01:12;17.30;65.80
16134;DHT22;8172;45.018;5.972;2022-09-06T05:06:22;17.30;66.00
16134;DHT22;8172;45.018;5.972;2022-09-06T05:11:29;17.30;65.90
16134;DHT22;8172;45.018;5.972;2022-09-06T05:16:36;17.30;65.80
16134;DHT22;8172;45.018;5.972;2022-09-06T05:21:44;17.30;65.90
16134;DHT22;8172;45.018;5.972;2022-09-06T05:26:51;17.40;66.10
16134;DHT22;8172;45.018;5.972;2022-09-06T05:31:58;17.50;66.10
16134;DHT22;8172;45.018;5.972;2022-09-06T05:37:05;17.50;66.10
16134;DHT22;8172;45.018;5.972;2022-09-06T05:42:12;17.50;66.10
16134;DHT22;8172;45.018;5.972;2022-09-06T05:47:20;17.50;66.10
16134;DHT22;8172;45.018;5.972;2022-09-06T05:52:28;17.50;66.40
16134;DHT22;8172;45.018;5.972;2022-09-06T05:57:36;17.50;66.60
16134;DHT22;8172;45.018;5.972;2022-09-06T06:02:46;17.50;66.70
16134;DHT22;8172;45.018;5.972;2022-09-06T06:07:53;17.60;66.90
16134;DHT22;8172;45.018;5.972;2022-09-06T06:13:00;17.60;66.90
16134;DHT22;8172;45.018;5.972;2022-09-06T06:18:07;17.60;66.80
16134;DHT22;8172;45.018;5.972;2022-09-06T06:23:15;17.60;66.90
16134;DHT22;8172;45.018;5.972;2022-09-06T06:28:22;17.70;67.00
16134;DHT22;8172;45.018;5.972;2022-09-06T06:33:29;17.70;67.30
16134;DHT22;8172;45.018;5.972;2022-09-06T06:38:38;17.80;67.30
16134;DHT22;8172;45.018;5.972;2022-09-06T06:43:45;17.80;67.20
16134;DHT22;8172;45.018;5.972;2022-09-06T06:48:52;17.90;67.60
16134;DHT22;8172;45.018;5.972;2022-09-06T06:54:00;17.90;67.80
16134;DHT22;8172;45.018;5.972;2022-09-06T06:59:07;18.00;67.80
16134;DHT22;8172;45.018;5.972;2022-09-06T07:04:14;18.00;68.10
16134;DHT22;8172;45.018;5.972;2022-09-06T07:09:21;18.10;68.00
16134;DHT22;8172;45.018;5.972;2022-09-06T07:14:28;18.10;68.20
16134;DHT22;8172;45.018;5.972;2022-09-06T07:19:35;18.10;68.20
16134;DHT22;8172;45.018;5.972;2022-09-06T07:24:44;18.20;68.40
16134;DHT22;8172;45.018;5.972;2022-09-06T07:29:51;18.20;68.50
16134;DHT22;8172;45.018;5.972;2022-09-06T07:34:58;18.20;68.60
16134;DHT22;8172;45.018;5.972;2022-09-06T07:40:05;18.20;68.70
16134;DHT22;8172;45.018;5.972;2022-09-06T07:45:12;18.30;68.70
16134;DHT22;8172;45.018;5.972;2022-09-06T07:50:20;18.30;68.50
16134;DHT22;8172;45.018;5.972;2022-09-06T07:55:28;18.30;68.50
16134;DHT22;8172;45.018;5.972;2022-09-06T08:00:36;18.30;69.00
16134;DHT22;8172;45.018;5.972;2022-09-06T08:05:49;18.40;69.20
16134;DHT22;8172;45.018;5.972;2022-09-06T08:10:56;18.40;69.60
16134;DHT22;8172;45.018;5.972;2022-09-06T08:16:06;18.50;69.60
16134;DHT22;8172;45.018;5.972;2022-09-06T08:21:15;18.60;69.60
16134;DHT22;8172;45.018;5.972;2022-09-06T08:26:23;18.80;68.70
16134;DHT22;8172;45.018;5.972;2022-09-06T08:31:32;19.00;68.50
16134;DHT22;8172;45.018;5.972;2022-09-06T08:36:41;19.20;67.60
16134;DHT22;8172;45.018;5.972;2022-09-06T08:52:13;19.50;67.10
16134;DHT22;8172;45.018;5.972;2022-09-06T09:02:26;19.80;66.50
16134;DHT22;8172;45.018;5.972;2022-09-06T09:12:45;20.20;66.00
16134;DHT22;8172;45.018;5.972;2022-09-06T09:17:53;20.40;65.80
16134;DHT22;8172;45.018;5.972;2022-09-06T09:23:01;20.60;65.50
16134;DHT22;8172;45.018;5.972;2022-09-06T09:38:29;21.10;64.00
16134;DHT22;8172;45.018;5.972;2022-09-06T09:43:39;21.30;63.10
16134;DHT22;8172;45.018;5.972;2022-09-06T09:54:00;21.80;62.40
16134;DHT22;8172;45.018;5.972;2022-09-06T10:04:28;22.10;61.50
16134;DHT22;8172;45.018;5.972;2022-09-06T10:09:34;22.30;60.40
16134;DHT22;8172;45.018;5.972;2022-09-06T10:14:46;22.50;60.10
16134;DHT22;8172;45.018;5.972;2022-09-06T10:19:52;22.60;60.50
16134;DHT22;8172;45.018;5.972;2022-09-06T10:30:10;22.90;59.10
16134;DHT22;8172;45.018;5.972;2022-09-06T10:35:22;22.90;58.80
16134;DHT22;8172;45.018;5.972;2022-09-06T10:40:32;23.00;58.60
16134;DHT22;8172;45.018;5.972;2022-09-06T10:56:06;23.20;58.40
16134;DHT22;8172;45.018;5.972;2022-09-06T11:01:18;23.30;57.80
16134;DHT22;8172;45.018;5.972;2022-09-06T11:06:23;23.40;57.30
16134;DHT22;8172;45.018;5.972;2022-09-06T11:11:38;23.40;58.00
16134;DHT22;8172;45.018;5.972;2022-09-06T11:16:53;23.50;57.80
16134;DHT22;8172;45.018;5.972;2022-09-06T11:27:09;23.60;57.00
16134;DHT22;8172;45.018;5.972;2022-09-06T11:37:32;23.70;56.20
16134;DHT22;8172;45.018;5.972;2022-09-06T11:42:38;23.80;56.00
16134;DHT22;8172;45.018;5.972;2022-09-06T11:47:46;23.80;56.00
16134;DHT22;8172;45.018;5.972;2022-09-06T11:58:06;23.90;56.00
16134;DHT22;8172;45.018;5.972;2022-09-06T12:08:29;24.00;55.20
16134;DHT22;8172;45.018;5.972;2022-09-06T12:23:54;24.20;54.50
16134;DHT22;8172;45.018;5.972;2022-09-06T12:29:03;24.30;54.70
16134;DHT22;8172;45.018;5.972;2022-09-06T12:34:16;24.30;54.30
16134;DHT22;8172;45.018;5.972;2022-09-06T12:39:21;24.40;54.40
16134;DHT22;8172;45.018;5.972;2022-09-06T12:44:33;24.40;53.80
16134;DHT22;8172;45.018;5.972;2022-09-06T12:49:41;24.50;53.70
16134;DHT22;8172;45.018;5.972;2022-09-06T12:54:49;24.50;54.10
16134;DHT22;8172;45.018;5.972;2022-09-06T12:59:57;24.40;53.00
16134;DHT22;8172;45.018;5.972;2022-09-06T13:05:06;24.30;53.70
16134;DHT22;8172;45.018;5.972;2022-09-06T13:10:18;24.30;53.70
16134;DHT22;8172;45.018;5.972;2022-09-06T13:15:28;24.30;54.00
16134;DHT22;8172;45.018;5.972;2022-09-06T13:20:36;24.40;53.90
16134;DHT22;8172;45.018;5.972;2022-09-06T13:25:48;24.50;54.50
16134;DHT22;8172;45.018;5.972;2022-09-06T13:31:04;24.50;53.70
16134;DHT22;8172;45.018;5.972;2022-09-06T13:46:27;23.90;54.10
16134;DHT22;8172;45.018;5.972;2022-09-06T13:51:36;23.80;54.60
16134;DHT22;8172;45.018;5.972;2022-09-06T13:56:43;23.90;54.50
16134;DHT22;8172;45.018;5.972;2022-09-06T14:01:55;24.10;53.90
16134;DHT22;8172;45.018;5.972;2022-09-06T14:07:01;24.10;53.50
16134;DHT22;8172;45.018;5.972;2022-09-06T14:12:08;24.20;53.50
16134;DHT22;8172;45.018;5.972;2022-09-06T14:17:15;24.40;52.90
16134;DHT22;8172;45.018;5.972;2022-09-06T14:22:22;24.30;52.60
16134;DHT22;8172;45.018;5.972;2022-09-06T14:27:30;24.20;52.30
16134;DHT22;8172;45.018;5.972;2022-09-06T14:32:37;24.10;52.60
16134;DHT22;8172;45.018;5.972;2022-09-06T14:37:44;24.00;52.30
16134;DHT22;8172;45.018;5.972;2022-09-06T14:42:52;23.80;51.80
16134;DHT22;8172;45.018;5.972;2022-09-06T14:47:59;23.70;52.10
16134;DHT22;8172;45.018;5.972;2022-09-06T14:53:07;23.60;52.70
16134;DHT22;8172;45.018;5.972;2022-09-06T14:58:15;23.50;53.00
16134;DHT22;8172;45.018;5.972;2022-09-06T15:03:22;23.30;53.60
16134;DHT22;8172;45.018;5.972;2022-09-06T15:08:30;23.20;53.90
16134;DHT22;8172;45.018;5.972;2022-09-06T15:13:38;23.10;53.70
16134;DHT22;8172;45.018;5.972;2022-09-06T15:18:46;23.10;54.10
16134;DHT22;8172;45.018;5.972;2022-09-06T15:23:53;23.00;54.70
16134;DHT22;8172;45.018;5.972;2022-09-06T15:29:01;22.90;54.60
16134;DHT22;8172;45.018;5.972;2022-09-06T15:34:09;22.90;55.50
16134;DHT22;8172;45.018;5.972;2022-09-06T15:39:17;22.80;55.40
16134;DHT22;8172;45.018;5.972;2022-09-06T15:44:25;22.80;55.60
16134;DHT22;8172;45.018;5.972;2022-09-06T15:49:32;22.80;55.60
16134;DHT22;8172;45.018;5.972;2022-09-06T15:54:39;22.70;55.80
16134;DHT22;8172;45.018;5.972;2022-09-06T15:59:48;22.70;56.20
16134;DHT22;8172;45.018;5.972;2022-09-06T16:04:55;22.70;56.50
16134;DHT22;8172;45.018;5.972;2022-09-06T16:10:02;22.70;56.60
16134;DHT22;8172;45.018;5.972;2022-09-06T16:15:10;22.60;56.40
16134;DHT22;8172;45.018;5.972;2022-09-06T16:20:18;22.60;56.60
16134;DHT22;8172;45.018;5.972;2022-09-06T16:25:25;22.50;56.50
16134;DHT22;8172;45.018;5.972;2022-09-06T16:30:33;22.50;56.70
16134;DHT22;8172;45.018;5.972;2022-09-06T16:35:41;22.50;56.90
16134;DHT22;8172;45.018;5.972;2022-09-06T16:40:49;22.50;56.90
16134;DHT22;8172;45.018;5.972;2022-09-06T16:45:58;22.60;57.10
16134;DHT22;8172;45.018;5.972;2022-09-06T16:56:19;22.50;57.20
16134;DHT22;8172;45.018;5.972;2022-09-06T17:01:29;22.50;57.30
16134;DHT22;8172;45.018;5.972;2022-09-06T17:06:37;22.40;57.40
16134;DHT22;8172;45.018;5.972;2022-09-06T17:11:47;22.40;57.90
16134;DHT22;8172;45.018;5.972;2022-09-06T17:16:55;22.30;57.80
16134;DHT22;8172;45.018;5.972;2022-09-06T17:22:04;22.30;57.70
16134;DHT22;8172;45.018;5.972;2022-09-06T17:27:11;22.20;57.80
16134;DHT22;8172;45.018;5.972;2022-09-06T17:32:18;22.10;58.00
16134;DHT22;8172;45.018;5.972;2022-09-06T17:37:25;22.10;58.30
16134;DHT22;8172;45.018;5.972;2022-09-06T17:42:33;22.00;58.40
16134;DHT22;8172;45.018;5.972;2022-09-06T17:47:40;22.00;58.60
16134;DHT22;8172;45.018;5.972;2022-09-06T17:52:49;21.90;58.70
16134;DHT22;8172;45.018;5.972;2022-09-06T17:57:58;21.90;58.80
16134;DHT22;8172;45.018;5.972;2022-09-06T18:03:06;21.80;58.90
16134;DHT22;8172;45.018;5.972;2022-09-06T18:08:14;21.80;59.20
16134;DHT22;8172;45.018;5.972;2022-09-06T18:13:21;21.70;59.50
16134;DHT22;8172;45.018;5.972;2022-09-06T18:18:31;21.70;59.50
16134;DHT22;8172;45.018;5.972;2022-09-06T18:23:39;21.60;59.60
16134;DHT22;8172;45.018;5.972;2022-09-06T18:28:47;21.60;59.90
16134;DHT22;8172;45.018;5.972;2022-09-06T18:33:55;21.50;59.90
16134;DHT22;8172;45.018;5.972;2022-09-06T18:39:05;21.50;59.90
16134;DHT22;8172;45.018;5.972;2022-09-06T18:44:13;21.40;59.90
16134;DHT22;8172;45.018;5.972;2022-09-06T18:49:22;21.40;60.20
16134;DHT22;8172;45.018;5.972;2022-09-06T18:54:30;21.30;60.40
16134;DHT22;8172;45.018;5.972;2022-09-06T18:59:38;21.30;60.80
16134;DHT22;8172;45.018;5.972;2022-09-06T19:04:46;21.30;61.60
16134;DHT22;8172;45.018;5.972;2022-09-06T19:09:53;21.30;62.60
16134;DHT22;8172;45.018;5.972;2022-09-06T19:15:00;21.20;63.60
16134;DHT22;8172;45.018;5.972;2022-09-06T19:20:07;21.20;64.40
16134;DHT22;8172;45.018;5.972;2022-09-06T19:25:17;21.10;65.00
16134;DHT22;8172;45.018;5.972;2022-09-06T19:30:24;20.90;64.20
16134;DHT22;8172;45.018;5.972;2022-09-06T19:35:35;20.70;62.60
16134;DHT22;8172;45.018;5.972;2022-09-06T19:40:43;20.40;62.20
16134;DHT22;8172;45.018;5.972;2022-09-06T19:45:51;20.10;61.70
16134;DHT22;8172;45.018;5.972;2022-09-06T19:51:00;19.90;61.80
16134;DHT22;8172;45.018;5.972;2022-09-06T19:56:11;19.70;63.20
16134;DHT22;8172;45.018;5.972;2022-09-06T20:01:19;19.50;63.70
16134;DHT22;8172;45.018;5.972;2022-09-06T20:06:26;19.40;64.00
16134;DHT22;8172;45.018;5.972;2022-09-06T20:11:36;19.30;64.00
16134;DHT22;8172;45.018;5.972;2022-09-06T20:16:44;19.10;64.70
16134;DHT22;8172;45.018;5.972;2022-09-06T20:21:51;19.00;65.30
16134;DHT22;8172;45.018;5.972;2022-09-06T20:26:59;18.90;65.50
16134;DHT22;8172;45.018;5.972;2022-09-06T20:32:07;18.80;66.10
16134;DHT22;8172;45.018;5.972;2022-09-06T20:37:14;18.80;66.30
16134;DHT22;8172;45.018;5.972;2022-09-06T20:42:22;18.70;66.40
16134;DHT22;8172;45.018;5.972;2022-09-06T20:47:29;18.60;66.90
16134;DHT22;8172;45.018;5.972;2022-09-06T20:52:36;18.60;66.80
16134;DHT22;8172;45.018;5.972;2022-09-06T20:57:45;18.60;67.10
16134;DHT22;8172;45.018;5.972;2022-09-06T21:02:52;18.60;67.20
16134;DHT22;8172;45.018;5.972;2022-09-06T21:07:59;18.50;67.50
16134;DHT22;8172;45.018;5.972;2022-09-06T21:13:07;18.50;67.60
16134;DHT22;8172;45.018;5.972;2022-09-06T21:18:14;18.50;67.70
16134;DHT22;8172;45.018;5.972;2022-09-06T21:23:22;18.50;67.80
16134;DHT22;8172;45.018;5.972;2022-09-06T21:28:31;18.40;68.00
16134;DHT22;8172;45.018;5.972;2022-09-06T21:33:40;18.40;67.80
16134;DHT22;8172;45.018;5.972;2022-09-06T21:38:49;18.30;67.90
16134;DHT22;8172;45.018;5.972;2022-09-06T21:43:59;18.30;68.00
16134;DHT22;8172;45.018;5.972;2022-09-06T21:49:08;18.30;68.10
16134;DHT22;8172;45.018;5.972;2022-09-06T21:54:15;18.20;68.30
16134;DHT22;8172;45.018;5.972;2022-09-06T21:59:22;18.20;68.40
16134;DHT22;8172;45.018;5.972;2022-09-06T22:04:29;18.10;68.40
16134;DHT22;8172;45.018;5.972;2022-09-06T22:09:37;18.10;68.50
16134;DHT22;8172;45.018;5.972;2022-09-06T22:14:44;18.00;68.60
16134;DHT22;8172;45.018;5.972;2022-09-06T22:19:52;18.00;68.70
16134;DHT22;8172;45.018;5.972;2022-09-06T22:24:59;18.00;68.80
16134;DHT22;8172;45.018;5.972;2022-09-06T22:30:07;18.00;68.70
16134;DHT22;8172;45.018;5.972;2022-09-06T22:35:14;17.90;68.90
16134;DHT22;8172;45.018;5.972;2022-09-06T22:40:21;17.90;69.00
16134;DHT22;8172;45.018;5.972;2022-09-06T22:45:28;17.80;69.10
16134;DHT22;8172;45.018;5.972;2022-09-06T22:50:38;17.80;69.00
16134;DHT22;8172;45.018;5.972;2022-09-06T22:55:46;17.80;69.00
16134;DHT22;8172;45.018;5.972;2022-09-06T23:00:54;17.70;69.10
16134;DHT22;8172;45.018;5.972;2022-09-06T23:06:01;17.70;69.30
16134;DHT22;8172;45.018;5.972;2022-09-06T23:11:12;17.70;69.40
16134;DHT22;8172;45.018;5.972;2022-09-06T23:16:20;17.60;69.40
16134;DHT22;8172;45.018;5.972;2022-09-06T23:21:27;17.60;69.40
16134;DHT22;8172;45.018;5.972;2022-09-06T23:26:34;17.60;69.60
16134;DHT22;8172;45.018;5.972;2022-09-06T23:31:41;17.60;69.60
16134;DHT22;8172;45.018;5.972;2022-09-06T23:36:48;17.50;69.60
16134;DHT22;8172;45.018;5.972;2022-09-06T23:41:57;17.50;69.80
16134;DHT22;8172;45.018;5.972;2022-09-06T23:47:04;17.40;69.90
16134;DHT22;8172;45.018;5.972;2022-09-06T23:52:11;17.40;69.80
16134;DHT22;8172;45.018;5.972;2022-09-06T23:57:17;17.30;69.90
